TimeMDT,TemperatureF,Dew PointF,Humidity,Sea Level PressureIn,VisibilityMPH,Wind Direction,Wind SpeedMPH,Gust SpeedMPH,PrecipitationIn,Events,Conditions,WindDirDegrees,DateUTC
12:53 AM,50.0,32.0,50,29.96,10.0,West,9.2,-,N/A,,Overcast,270,2011-10-31 06:53:00
1:53 AM,48.0,34.0,58,29.94,10.0,East,4.6,-,N/A,,Mostly Cloudy,90,2011-10-31 07:53:00
2:53 AM,48.0,34.0,58,29.92,10.0,Variable,4.6,-,N/A,,Scattered Clouds,0,2011-10-31 08:53:00
3:53 AM,50.0,36.0,59,29.90,10.0,West,9.2,19.6,N/A,,Mostly Cloudy,260,2011-10-31 09:53:00
4:53 AM,48.2,35.6,62,29.98,10.0,SSW,9.2,-,N/A,,Overcast,210,2011-10-31 10:53:00
5:53 AM,46.9,36.0,66,29.88,10.0,SW,9.2,-,N/A,,Overcast,220,2011-10-31 11:53:00
6:53 AM,48.0,35.1,61,29.88,10.0,SW,13.8,-,N/A,,Overcast,230,2011-10-31 12:53:00
7:53 AM,46.0,34.0,63,29.88,10.0,Variable,4.6,16.1,N/A,,Scattered Clouds,0,2011-10-31 13:53:00
8:53 AM,45.0,33.1,63,29.89,10.0,SSW,5.8,-,N/A,,Mostly Cloudy,210,2011-10-31 14:53:00
9:53 AM,45.0,34.0,65,29.91,10.0,NNW,6.9,-,N/A,,Overcast,340,2011-10-31 15:53:00
10:53 AM,46.0,34.0,63,29.93,10.0,WNW,9.2,-,N/A,,Overcast,300,2011-10-31 16:53:00
11:53 AM,46.9,28.0,48,29.92,10.0,Variable,3.5,-,N/A,,Overcast,0,2011-10-31 17:53:00
12:53 PM,46.9,21.9,37,29.92,10.0,NNW,9.2,-,N/A,,Overcast,340,2011-10-31 18:53:00
1:53 PM,46.9,16.0,29,29.92,10.0,West,16.1,26.5,N/A,,Overcast,270,2011-10-31 19:53:00
2:38 PM,46.4,21.2,37,29.98,10.0,NW,13.8,24.2,N/A,,Overcast,320,2011-10-31 20:38:00
2:53 PM,45.0,23.0,42,29.94,10.0,NNW,11.5,21.9,N/A,,Overcast,340,2011-10-31 20:53:00
3:53 PM,45.0,19.0,36,29.94,10.0,NNW,15.0,24.2,N/A,,Overcast,330,2011-10-31 21:53:00
4:53 PM,43.0,12.9,30,29.97,10.0,NW,18.4,31.1,N/A,,Overcast,310,2011-10-31 22:53:00
5:53 PM,39.9,16.0,38,30.02,10.0,NNW,21.9,27.6,N/A,,Mostly Cloudy,330,2011-10-31 23:53:00
6:53 PM,37.0,17.1,44,30.07,10.0,NNW,12.7,-,N/A,,Partly Cloudy,330,2011-11-01 00:53:00
7:53 PM,33.8,14.0,44,30.10,10.0,NW,13.8,-,N/A,,Clear,320,2011-11-01 01:53:00
8:53 PM,32.0,15.1,50,30.13,10.0,NW,6.9,-,N/A,,Clear,320,2011-11-01 02:53:00
9:53 PM,30.0,15.1,54,30.14,10.0,NW,10.4,-,N/A,,Clear,320,2011-11-01 03:53:00
10:53 PM,28.4,14.0,55,30.13,10.0,NNW,5.8,-,N/A,,Clear,330,2011-11-01 04:53:00
11:53 PM,30.0,14.0,51,30.16,10.0,NNW,5.8,-,N/A,,Clear,330,2011-11-01 05:53:00